createdAt,value
2019-04-14T00:03:45.440Z,4.59
2019-04-14T00:09:14.172Z,4.59
2019-04-14T00:14:38.943Z,4.57
2019-04-14T00:20:05.380Z,4.50
2019-04-14T00:25:30.280Z,4.48
2019-04-14T00:30:55.582Z,4.49
2019-04-14T00:36:28.418Z,4.42
2019-04-14T00:42:01.594Z,4.43
2019-04-14T00:47:54.755Z,4.39
2019-04-14T00:53:14.243Z,4.34
2019-04-14T00:58:38.943Z,4.31
2019-04-14T01:04:03.462Z,4.31
2019-04-14T01:09:28.472Z,4.29
2019-04-14T01:14:53.894Z,4.26
2019-04-14T01:20:17.406Z,4.23
2019-04-14T01:25:41.628Z,4.26
2019-04-14T01:31:05.560Z,4.22
2019-04-14T01:36:29.834Z,4.21
2019-04-14T01:41:54.391Z,4.15
2019-04-14T01:47:18.790Z,4.16
2019-04-14T01:52:50.131Z,4.13
2019-04-14T01:58:36.113Z,4.10
2019-04-14T02:04:00.594Z,3.98
2019-04-14T02:09:25.211Z,3.85
2019-04-14T02:14:49.518Z,3.82
2019-04-14T02:20:14.239Z,3.75
2019-04-14T02:25:40.675Z,3.61
2019-04-14T02:31:18.156Z,3.56
2019-04-14T02:36:57.123Z,3.54
2019-04-14T02:53:18.401Z,3.31
2019-04-14T03:03:56.772Z,3.31
2019-04-14T03:09:38.217Z,3.27
2019-04-14T03:14:55.599Z,3.26
2019-04-14T03:20:31.853Z,3.20
2019-04-14T03:25:59.220Z,3.18
2019-04-14T03:31:49.595Z,3.16
2019-04-14T03:47:53.187Z,3.15
2019-04-14T03:53:15.899Z,3.13
2019-04-14T03:58:11.513Z,3.19
2019-04-14T04:03:36.842Z,3.19
2019-04-14T04:09:01.903Z,3.14
2019-04-14T04:14:29.103Z,3.11
2019-04-14T04:20:11.736Z,3.00
2019-04-14T04:25:44.588Z,3.03
2019-04-14T04:31:32.826Z,3.03
2019-04-14T04:37:06.067Z,2.97
2019-04-14T04:42:30.771Z,2.90
2019-04-14T04:47:54.210Z,2.86
2019-04-14T04:53:18.755Z,2.79
2019-04-14T04:58:43.495Z,2.78
2019-04-14T05:04:09.029Z,2.74
2019-04-14T05:09:51.368Z,2.69
2019-04-14T05:15:27.626Z,2.71
2019-04-14T05:20:51.297Z,2.75
2019-04-14T05:26:17.815Z,2.78
2019-04-14T05:31:42.578Z,2.80
2019-04-14T05:37:07.216Z,2.85
2019-04-14T05:42:31.890Z,2.89
2019-04-14T05:47:56.529Z,2.94
2019-04-14T05:53:20.080Z,2.88
2019-04-14T05:58:44.640Z,2.82
2019-04-14T06:04:10.023Z,2.83
2019-04-14T06:09:34.388Z,2.85
2019-04-14T06:14:58.058Z,2.81
2019-04-14T06:20:21.454Z,2.75
2019-04-14T06:25:46.186Z,2.77
2019-04-14T06:31:27.841Z,2.79
2019-04-14T06:37:03.350Z,2.82
2019-04-14T06:42:27.156Z,2.88
2019-04-14T06:47:51.460Z,2.92
2019-04-14T06:53:15.802Z,3.00
2019-04-14T06:58:40.604Z,2.95
2019-04-14T07:04:05.170Z,3.04
2019-04-14T07:09:29.675Z,2.95
2019-04-14T07:14:53.575Z,2.90
2019-04-14T07:20:17.713Z,3.05
2019-04-14T07:25:41.896Z,3.07
2019-04-14T07:31:37.148Z,3.13
2019-04-14T07:37:19.531Z,3.13
2019-04-14T07:42:51.899Z,3.17
2019-04-14T07:48:23.692Z,3.32
2019-04-14T07:54:04.944Z,3.46
2019-04-14T07:59:48.180Z,3.62
2019-04-14T08:05:18.224Z,3.79
2019-04-14T08:10:42.406Z,3.84
2019-04-14T08:16:05.827Z,3.93
2019-04-14T08:21:29.552Z,4.08
2019-04-14T08:26:53.817Z,4.27
2019-04-14T08:32:17.481Z,4.16
2019-04-14T08:37:42.370Z,4.28
2019-04-14T08:43:29.013Z,4.54
2019-04-14T08:48:56.844Z,4.89
2019-04-14T08:54:24.794Z,5.06
2019-04-14T09:00:07.343Z,5.07
2019-04-14T09:06:05.241Z,5.08
2019-04-14T09:11:36.704Z,5.20
2019-04-14T09:17:00.089Z,5.18
2019-04-14T09:22:24.640Z,5.33
2019-04-14T09:27:48.804Z,5.50
2019-04-14T09:33:14.503Z,5.39
2019-04-14T09:38:38.649Z,5.48
2019-04-14T09:44:03.066Z,5.53
2019-04-14T09:49:27.542Z,5.36
2019-04-14T09:54:50.929Z,5.17
2019-04-14T10:00:15.037Z,5.13
2019-04-14T10:05:38.838Z,5.29
2019-04-14T10:11:03.402Z,5.33
2019-04-14T10:16:27.716Z,5.31
2019-04-14T10:21:51.196Z,5.34
2019-04-14T10:27:14.859Z,5.42
2019-04-14T10:32:39.235Z,5.38
2019-04-14T10:38:03.733Z,5.34
2019-04-14T10:43:27.118Z,5.42
2019-04-14T10:48:50.811Z,5.53
2019-04-14T10:54:14.523Z,5.56
2019-04-14T10:59:38.723Z,5.66
2019-04-14T11:05:02.138Z,5.64
2019-04-14T11:10:26.216Z,5.71
2019-04-14T11:15:50.780Z,5.81
2019-04-14T11:21:15.438Z,5.87
2019-04-14T11:26:39.549Z,6.02
2019-04-14T11:32:20.485Z,5.97
2019-04-14T11:38:10.145Z,6.11
2019-04-14T11:43:34.702Z,6.42
2019-04-14T11:48:58.541Z,6.62
2019-04-14T11:54:21.888Z,6.71
2019-04-14T11:59:55.033Z,6.92
2019-04-14T12:05:30.205Z,7.31
2019-04-14T12:10:54.370Z,7.89
2019-04-14T12:16:17.985Z,8.28
2019-04-14T12:21:42.102Z,8.21
2019-04-14T12:27:05.480Z,7.83
2019-04-14T12:32:30.602Z,7.74
2019-04-14T12:37:55.249Z,8.05
2019-04-14T12:43:32.811Z,8.30
2019-04-14T12:49:18.834Z,8.28
2019-04-14T12:54:43.316Z,8.40
2019-04-14T13:00:15.063Z,8.68
2019-04-14T13:05:38.421Z,9.40
2019-04-14T13:11:03.335Z,9.76
2019-04-14T13:16:27.860Z,10.44
2019-04-14T13:21:53.117Z,10.66
2019-04-14T13:27:16.426Z,10.37
2019-04-14T13:32:39.854Z,10.49
2019-04-14T13:38:04.642Z,10.84
2019-04-14T13:43:27.972Z,10.77
2019-04-14T13:48:52.135Z,10.55
2019-04-14T13:54:16.057Z,10.50
2019-04-14T13:59:40.627Z,10.96
2019-04-14T14:05:05.015Z,10.97
2019-04-14T14:10:29.309Z,11.21
2019-04-14T14:16:07.022Z,11.01
2019-04-14T14:21:40.865Z,10.97
2019-04-14T14:27:05.996Z,11.08
2019-04-14T14:32:35.447Z,11.14
2019-04-14T14:37:59.861Z,11.43
2019-04-14T14:43:23.353Z,11.31
2019-04-14T14:48:54.796Z,11.12
2019-04-14T14:54:18.185Z,11.31
2019-04-14T14:59:41.975Z,11.42
2019-04-14T15:05:05.781Z,11.56
2019-04-14T15:10:30.134Z,11.64
2019-04-14T15:15:55.283Z,11.76
2019-04-14T15:21:19.487Z,11.89
2019-04-14T15:26:42.918Z,11.72
2019-04-14T15:32:07.224Z,11.87
2019-04-14T15:37:31.586Z,11.96
2019-04-14T15:42:55.834Z,12.06
2019-04-14T15:48:20.055Z,12.25
2019-04-14T15:53:43.842Z,11.98
2019-04-14T15:59:13.886Z,12.36
2019-04-14T16:05:02.151Z,11.96
2019-04-14T16:10:40.887Z,11.86
2019-04-14T16:16:24.172Z,11.71
2019-04-14T16:21:47.649Z,11.44
2019-04-14T16:27:35.252Z,11.33
2019-04-14T16:33:06.769Z,11.23
2019-04-14T16:38:30.842Z,11.15
2019-04-14T16:43:54.755Z,10.98
2019-04-14T16:49:19.234Z,10.89
2019-04-14T16:54:50.148Z,10.81
2019-04-14T17:00:21.598Z,10.65
2019-04-14T17:05:44.565Z,10.60
2019-04-14T17:11:08.030Z,10.48
2019-04-14T17:16:39.448Z,10.36
2019-04-14T17:22:11.745Z,10.26
2019-04-14T17:27:58.168Z,10.19
2019-04-14T17:33:31.437Z,10.14
2019-04-14T17:39:18.382Z,10.03
2019-04-14T17:44:47.462Z,9.89
2019-04-14T17:50:40.173Z,9.77
2019-04-14T17:56:09.980Z,9.67
2019-04-14T18:02:05.790Z,9.55
2019-04-14T18:07:44.707Z,9.37
2019-04-14T18:13:33.303Z,9.15
2019-04-14T18:19:27.676Z,8.97
2019-04-14T18:24:52.121Z,8.82
2019-04-14T18:30:26.256Z,8.65
2019-04-14T18:35:57.905Z,8.50
2019-04-14T18:41:25.440Z,8.37
2019-04-14T18:47:04.746Z,8.15
2019-04-14T18:52:36.896Z,8.01
2019-04-14T18:58:22.083Z,7.94
2019-04-14T19:03:46.192Z,7.96
2019-04-14T19:09:10.361Z,7.91
2019-04-14T19:14:38.370Z,7.81
2019-04-14T19:20:02.779Z,7.73
2019-04-14T19:25:27.438Z,7.67
2019-04-14T19:30:51.895Z,7.50
2019-04-14T19:36:16.216Z,7.33
2019-04-14T19:41:41.047Z,7.20
2019-04-14T19:47:05.537Z,7.14
2019-04-14T19:52:29.996Z,7.13
2019-04-14T19:57:54.490Z,7.16
2019-04-14T20:03:19.034Z,7.08
2019-04-14T20:08:43.278Z,7.01
2019-04-14T20:14:07.834Z,6.91
2019-04-14T20:19:56.125Z,6.77
2019-04-14T20:25:37.503Z,6.63
2019-04-14T20:31:15.073Z,6.56
2019-04-14T20:36:39.769Z,6.39
2019-04-14T20:42:05.186Z,6.24
2019-04-14T20:47:29.409Z,6.10
2019-04-14T20:52:53.724Z,6.00
2019-04-14T20:58:17.311Z,5.91
2019-04-14T21:03:49.179Z,5.84
2019-04-14T21:09:29.879Z,5.83
2019-04-14T21:15:00.937Z,6.00
2019-04-14T21:20:52.456Z,6.06
2019-04-14T21:26:47.843Z,6.11
2019-04-14T21:32:16.475Z,6.26
2019-04-14T21:37:56.650Z,6.22
2019-04-14T21:43:21.299Z,6.16
2019-04-14T21:48:46.752Z,6.09
2019-04-14T21:54:10.991Z,5.92
2019-04-14T21:59:40.151Z,5.92
2019-04-14T22:05:15.466Z,5.88
2019-04-14T22:10:51.958Z,5.82
2019-04-14T22:16:16.483Z,5.69
2019-04-14T22:21:41.451Z,5.60
2019-04-14T22:27:05.973Z,5.52
2019-04-14T22:32:30.143Z,5.39
2019-04-14T22:37:54.854Z,5.31
2019-04-14T22:43:19.104Z,5.22
2019-04-14T22:48:43.277Z,5.14
2019-04-14T22:54:08.772Z,5.06
2019-04-14T22:59:33.220Z,5.02
2019-04-14T23:05:12.506Z,4.99
2019-04-14T23:10:54.316Z,4.98
2019-04-14T23:16:29.062Z,5.04
2019-04-14T23:22:04.495Z,5.08
2019-04-14T23:27:28.584Z,5.21
2019-04-14T23:32:51.964Z,5.21
2019-04-14T23:38:16.545Z,5.15
2019-04-14T23:43:40.771Z,4.97
2019-04-14T23:49:05.283Z,4.84
2019-04-14T23:54:29.088Z,4.65
2019-04-14T23:59:52.818Z,4.48
